Time,TemperatureF,DewpointF,PressureIn,WindDirection,WindDirectionDegrees,WindSpeedMPH,WindSpeedGustMPH,Humidity,HourlyPrecipIn,Conditions,Clouds,dailyrainin,SolarRadiationWatts/m^2,SoftwareType,DateUTC
2013-07-10 00:22:00,48.0,43.0,-100.00,WSW,250,1.0,4.0,84,0.00,,,0.00,0.000000,,2013-07-10 08:22:00,
2013-07-10 00:33:00,48.0,43.0,-100.00,WSW,250,1.0,4.0,84,0.00,,,0.00,0.000000,,2013-07-10 08:33:00,
2013-07-10 00:42:00,48.0,43.0,-100.00,WSW,250,1.0,4.0,84,0.00,,,0.00,0.000000,,2013-07-10 08:42:00,
2013-07-10 00:53:00,48.0,43.0,-100.00,WSW,250,1.0,4.0,84,0.00,,,0.00,0.000000,,2013-07-10 08:53:00,
2013-07-10 01:22:00,48.0,45.0,-100.00,SSW,206,0.0,2.0,88,0.00,,,0.00,0.000000,,2013-07-10 09:22:00,
2013-07-10 01:32:00,48.0,45.0,-100.00,SSW,206,0.0,2.0,88,0.00,,,0.00,0.000000,,2013-07-10 09:32:00,
2013-07-10 01:42:00,48.0,45.0,-100.00,SSW,206,0.0,2.0,88,0.00,,,0.00,0.000000,,2013-07-10 09:42:00,
2013-07-10 01:52:00,48.0,45.0,-100.00,SSW,206,0.0,2.0,88,0.00,,,0.00,0.000000,,2013-07-10 09:52:00,
2013-07-10 01:56:00,-999.0,-99.9,-100.00,SSW,199,0.0,2.0,-999,-99.99,,,-99.99,0.000000,,2013-07-10 09:56:00,
2013-07-10 02:23:00,47.0,44.0,-100.00,SSW,199,0.0,2.0,90,0.00,,,0.00,0.000000,,2013-07-10 10:23:00,
2013-07-10 02:32:00,47.0,44.0,-100.00,SSW,199,0.0,2.0,90,0.00,,,0.00,0.000000,,2013-07-10 10:32:00,
2013-07-10 02:50:00,-999.0,-99.9,-100.00,SSW,199,0.0,2.0,-999,-99.99,,,-99.99,0.000000,,2013-07-10 10:50:00,
2013-07-10 06:22:00,47.0,45.0,-100.00,NE,35,0.0,0.0,93,-99.99,,,0.00,9.000000,,2013-07-10 14:22:00,
2013-07-10 06:33:00,47.0,45.0,-100.00,NE,35,0.0,0.0,93,-99.99,,,0.00,9.000000,,2013-07-10 14:33:00,
2013-07-10 06:43:00,47.0,45.0,-100.00,NE,35,0.0,0.0,93,-99.99,,,0.00,9.000000,,2013-07-10 14:43:00,
2013-07-10 06:53:00,47.0,45.0,-100.00,NE,35,0.0,0.0,93,-99.99,,,0.00,9.000000,,2013-07-10 14:53:00,
2013-07-10 07:22:00,48.0,45.0,-100.00,NE,55,0.0,0.0,90,0.00,,,0.00,38.000000,,2013-07-10 15:22:00,
2013-07-10 07:34:00,48.0,45.0,-100.00,NE,55,0.0,0.0,90,0.00,,,0.00,38.000000,,2013-07-10 15:34:00,
2013-07-10 07:42:00,48.0,45.0,-100.00,NE,55,0.0,0.0,90,0.00,,,0.00,38.000000,,2013-07-10 15:42:00,
2013-07-10 07:52:00,48.0,45.0,-100.00,NE,55,0.0,0.0,90,0.00,,,0.00,38.000000,,2013-07-10 15:52:00,
2013-07-10 08:22:00,50.0,45.0,-100.00,WNW,289,1.0,2.0,84,0.00,,,0.00,122.000000,,2013-07-10 16:22:00,
2013-07-10 08:33:00,50.0,45.0,-100.00,WNW,289,1.0,2.0,84,0.00,,,0.00,122.000000,,2013-07-10 16:33:00,
2013-07-10 08:44:00,50.0,45.0,-100.00,WNW,289,1.0,2.0,84,0.00,,,0.00,122.000000,,2013-07-10 16:44:00,
2013-07-10 08:53:00,50.0,45.0,-100.00,WNW,289,1.0,2.0,84,0.00,,,0.00,122.000000,,2013-07-10 16:53:00,
2013-07-10 09:23:00,52.0,46.0,-100.00,NE,43,0.0,1.0,80,0.00,,,0.00,175.000000,,2013-07-10 17:23:00,
2013-07-10 09:32:00,52.0,46.0,-100.00,NE,43,0.0,1.0,80,0.00,,,0.00,175.000000,,2013-07-10 17:32:00,
2013-07-10 09:42:00,52.0,46.0,-100.00,NE,43,0.0,1.0,80,0.00,,,0.00,175.000000,,2013-07-10 17:42:00,
2013-07-10 09:52:00,52.0,46.0,-100.00,NE,43,0.0,1.0,80,0.00,,,0.00,175.000000,,2013-07-10 17:52:00,
2013-07-10 10:21:00,56.0,47.0,-100.00,West,263,1.0,3.0,71,0.00,,,0.00,466.000000,,2013-07-10 18:21:00,
2013-07-10 10:32:00,56.0,47.0,-100.00,West,263,1.0,3.0,71,0.00,,,0.00,466.000000,,2013-07-10 18:32:00,
2013-07-10 10:44:00,56.0,47.0,-100.00,West,263,1.0,3.0,71,0.00,,,0.00,466.000000,,2013-07-10 18:44:00,
2013-07-10 10:52:00,56.0,47.0,-100.00,West,263,1.0,3.0,71,0.00,,,0.00,466.000000,,2013-07-10 18:52:00,
2013-07-10 11:32:00,56.0,46.0,-100.00,SW,220,1.0,3.0,68,0.00,,,0.00,342.000000,,2013-07-10 19:32:00,
2013-07-10 11:42:00,56.0,46.0,-100.00,SW,220,1.0,3.0,68,0.00,,,0.00,342.000000,,2013-07-10 19:42:00,
2013-07-10 11:52:00,56.0,46.0,-100.00,SW,220,1.0,3.0,68,0.00,,,0.00,342.000000,,2013-07-10 19:52:00,
2013-07-10 12:22:00,60.0,45.0,-100.00,WNW,294,1.0,3.0,58,0.00,,,0.00,502.000000,,2013-07-10 20:22:00,
2013-07-10 12:32:00,60.0,45.0,-100.00,WNW,294,1.0,3.0,58,0.00,,,0.00,502.000000,,2013-07-10 20:32:00,
2013-07-10 12:43:00,60.0,45.0,-100.00,WNW,294,1.0,3.0,58,0.00,,,0.00,502.000000,,2013-07-10 20:43:00,
2013-07-10 12:52:00,60.0,45.0,-100.00,WNW,294,1.0,3.0,58,0.00,,,0.00,502.000000,,2013-07-10 20:52:00,
2013-07-10 13:22:00,61.0,45.0,-100.00,NE,50,1.0,3.0,56,0.00,,,0.00,603.000000,,2013-07-10 21:22:00,
2013-07-10 13:32:00,61.0,45.0,-100.00,NE,50,1.0,3.0,56,0.00,,,0.00,603.000000,,2013-07-10 21:32:00,
2013-07-10 13:41:00,61.0,45.0,-100.00,NE,50,1.0,3.0,56,0.00,,,0.00,603.000000,,2013-07-10 21:41:00,
2013-07-10 13:52:00,61.0,45.0,-100.00,NE,50,1.0,3.0,56,0.00,,,0.00,603.000000,,2013-07-10 21:52:00,
2013-07-10 14:33:00,65.0,46.0,-100.00,SSW,202,1.0,3.0,51,0.00,,,0.00,743.000000,,2013-07-10 22:33:00,
2013-07-10 14:42:00,65.0,46.0,-100.00,SSW,202,1.0,3.0,51,0.00,,,0.00,743.000000,,2013-07-10 22:42:00,
2013-07-10 14:53:00,65.0,46.0,-100.00,SSW,202,1.0,3.0,51,0.00,,,0.00,743.000000,,2013-07-10 22:53:00,
2013-07-10 15:32:00,65.0,46.0,-100.00,West,264,2.0,5.0,51,0.00,,,0.00,628.000000,,2013-07-10 23:32:00,
2013-07-10 15:43:00,65.0,46.0,-100.00,West,264,2.0,5.0,51,0.00,,,0.00,628.000000,,2013-07-10 23:43:00,
2013-07-10 15:52:00,65.0,46.0,-100.00,West,264,2.0,5.0,51,0.00,,,0.00,628.000000,,2013-07-10 23:52:00,
2013-07-10 16:32:00,66.0,46.0,-100.00,NW,318,1.0,4.0,49,0.00,,,0.00,557.000000,,2013-07-11 00:32:00,
2013-07-10 16:42:00,66.0,46.0,-100.00,NW,318,1.0,4.0,49,0.00,,,0.00,557.000000,,2013-07-11 00:42:00,
2013-07-10 16:52:00,66.0,46.0,-100.00,NW,318,1.0,4.0,49,0.00,,,0.00,557.000000,,2013-07-11 00:52:00,
2013-07-10 17:22:00,60.0,49.0,-100.00,North,5,2.0,6.0,66,0.00,,,0.00,308.000000,,2013-07-11 01:22:00,
2013-07-10 17:32:00,60.0,49.0,-100.00,North,5,2.0,6.0,66,0.00,,,0.00,308.000000,,2013-07-11 01:32:00,
2013-07-10 17:43:00,60.0,49.0,-100.00,North,5,2.0,6.0,66,0.00,,,0.00,308.000000,,2013-07-11 01:43:00,
2013-07-10 17:52:00,60.0,49.0,-100.00,North,5,2.0,6.0,66,0.00,,,0.00,308.000000,,2013-07-11 01:52:00,
2013-07-10 18:22:00,62.0,54.0,-100.00,SSE,167,1.0,3.0,74,0.00,,,0.00,309.000000,,2013-07-11 02:22:00,
2013-07-10 18:32:00,62.0,54.0,-100.00,SSE,167,1.0,3.0,74,0.00,,,0.00,309.000000,,2013-07-11 02:32:00,
2013-07-10 18:43:00,62.0,54.0,-100.00,SSE,167,1.0,3.0,74,0.00,,,0.00,309.000000,,2013-07-11 02:43:00,
2013-07-10 18:53:00,62.0,54.0,-100.00,SSE,167,1.0,3.0,74,0.00,,,0.00,309.000000,,2013-07-11 02:53:00,
2013-07-10 19:21:00,63.0,48.0,-100.00,West,260,2.0,4.0,57,0.00,,,0.00,354.000000,,2013-07-11 03:21:00,
2013-07-10 19:33:00,63.0,48.0,-100.00,West,260,2.0,4.0,57,0.00,,,0.00,354.000000,,2013-07-11 03:33:00,
2013-07-10 19:42:00,63.0,48.0,-100.00,West,260,2.0,4.0,57,0.00,,,0.00,354.000000,,2013-07-11 03:42:00,
2013-07-10 19:52:00,63.0,48.0,-100.00,West,260,2.0,4.0,57,0.00,,,0.00,354.000000,,2013-07-11 03:52:00,
2013-07-10 20:22:00,62.0,46.0,-100.00,West,267,2.0,5.0,55,0.00,,,0.00,315.000000,,2013-07-11 04:22:00,
2013-07-10 20:32:00,62.0,46.0,-100.00,West,267,2.0,5.0,55,0.00,,,0.00,315.000000,,2013-07-11 04:32:00,
2013-07-10 20:42:00,62.0,46.0,-100.00,West,267,2.0,5.0,55,0.00,,,0.00,315.000000,,2013-07-11 04:42:00,
2013-07-10 20:53:00,62.0,46.0,-100.00,West,267,2.0,5.0,55,0.00,,,0.00,315.000000,,2013-07-11 04:53:00,
2013-07-10 21:22:00,59.0,47.0,-100.00,West,271,1.0,5.0,64,0.00,,,0.00,107.000000,,2013-07-11 05:22:00,
2013-07-10 21:32:00,59.0,47.0,-100.00,West,271,1.0,5.0,64,0.00,,,0.00,107.000000,,2013-07-11 05:32:00,
2013-07-10 21:43:00,59.0,47.0,-100.00,West,271,1.0,5.0,64,0.00,,,0.00,107.000000,,2013-07-11 05:43:00,
2013-07-10 21:52:00,59.0,47.0,-100.00,West,271,1.0,5.0,64,0.00,,,0.00,107.000000,,2013-07-11 05:52:00,
2013-07-10 22:22:00,57.0,47.0,-100.00,West,259,1.0,3.0,70,0.00,,,0.00,57.000000,,2013-07-11 06:22:00,
2013-07-10 22:32:00,57.0,47.0,-100.00,West,259,1.0,3.0,70,0.00,,,0.00,57.000000,,2013-07-11 06:32:00,
2013-07-10 22:43:00,57.0,47.0,-100.00,West,259,1.0,3.0,70,0.00,,,0.00,57.000000,,2013-07-11 06:43:00,
2013-07-10 22:52:00,57.0,47.0,-100.00,West,259,1.0,3.0,70,0.00,,,0.00,57.000000,,2013-07-11 06:52:00,
2013-07-10 23:22:00,51.0,47.0,-100.00,South,178,1.0,2.0,86,0.00,,,0.00,14.000000,,2013-07-11 07:22:00,
2013-07-10 23:32:00,51.0,47.0,-100.00,South,178,1.0,2.0,86,0.00,,,0.00,14.000000,,2013-07-11 07:32:00,
2013-07-10 23:45:00,51.0,47.0,-100.00,South,178,1.0,2.0,86,0.00,,,0.00,14.000000,,2013-07-11 07:45:00,
2013-07-10 23:53:00,51.0,47.0,-100.00,South,178,1.0,2.0,86,0.00,,,0.00,14.000000,,2013-07-11 07:53:00,